sensor_id;sensor_type;location;lat;lon;timestamp;P1;durP1;ratioP1;P2;durP2;ratioP2
28166;SDS011;15455;53.376;-6.262;2022-12-18T00:02:36;22.08;;;11.45;;
28166;SDS011;15455;53.376;-6.262;2022-12-18T00:05:22;30.58;;;17.35;;
28166;SDS011;15455;53.376;-6.262;2022-12-18T00:08:07;32.28;;;14.85;;
28166;SDS011;15455;53.376;-6.262;2022-12-18T00:10:53;36.95;;;15.50;;
28166;SDS011;15455;53.376;-6.262;2022-12-18T00:13:44;35.95;;;14.23;;
28166;SDS011;15455;53.376;-6.262;2022-12-18T00:16:30;34.75;;;13.13;;
28166;SDS011;15455;53.376;-6.262;2022-12-18T00:19:17;37.40;;;12.52;;
28166;SDS011;15455;53.376;-6.262;2022-12-18T00:22:03;44.40;;;16.30;;
28166;SDS011;15455;53.376;-6.262;2022-12-18T00:24:48;48.00;;;15.98;;
28166;SDS011;15455;53.376;-6.262;2022-12-18T00:27:34;42.67;;;17.63;;
28166;SDS011;15455;53.376;-6.262;2022-12-18T00:30:19;44.47;;;16.20;;
28166;SDS011;15455;53.376;-6.262;2022-12-18T00:33:05;55.22;;;20.38;;
28166;SDS011;15455;53.376;-6.262;2022-12-18T00:35:50;52.83;;;18.20;;
28166;SDS011;15455;53.376;-6.262;2022-12-18T00:38:36;47.83;;;17.17;;
28166;SDS011;15455;53.376;-6.262;2022-12-18T00:41:21;42.45;;;14.88;;
28166;SDS011;15455;53.376;-6.262;2022-12-18T00:44:27;38.88;;;15.50;;
28166;SDS011;15455;53.376;-6.262;2022-12-18T00:47:12;37.13;;;14.63;;
28166;SDS011;15455;53.376;-6.262;2022-12-18T00:49:57;36.85;;;14.30;;
28166;SDS011;15455;53.376;-6.262;2022-12-18T00:52:42;35.70;;;14.93;;
28166;SDS011;15455;53.376;-6.262;2022-12-18T00:55:28;25.85;;;11.50;;
28166;SDS011;15455;53.376;-6.262;2022-12-18T00:58:14;27.13;;;10.40;;
28166;SDS011;15455;53.376;-6.262;2022-12-18T01:01:03;18.45;;;9.50;;
28166;SDS011;15455;53.376;-6.262;2022-12-18T01:03:52;16.95;;;8.30;;
28166;SDS011;15455;53.376;-6.262;2022-12-18T01:06:37;15.93;;;6.82;;
28166;SDS011;15455;53.376;-6.262;2022-12-18T01:09:24;11.65;;;6.53;;
28166;SDS011;15455;53.376;-6.262;2022-12-18T01:12:10;10.50;;;5.57;;
28166;SDS011;15455;53.376;-6.262;2022-12-18T01:14:55;15.73;;;5.47;;
28166;SDS011;15455;53.376;-6.262;2022-12-18T01:17:41;11.68;;;5.32;;
28166;SDS011;15455;53.376;-6.262;2022-12-18T01:20:26;14.85;;;5.55;;
28166;SDS011;15455;53.376;-6.262;2022-12-18T01:23:12;14.90;;;5.53;;
28166;SDS011;15455;53.376;-6.262;2022-12-18T01:25:57;12.98;;;5.80;;
28166;SDS011;15455;53.376;-6.262;2022-12-18T01:28:43;13.80;;;6.25;;
28166;SDS011;15455;53.376;-6.262;2022-12-18T01:31:30;15.25;;;6.63;;
28166;SDS011;15455;53.376;-6.262;2022-12-18T01:34:20;14.95;;;5.45;;
28166;SDS011;15455;53.376;-6.262;2022-12-18T01:37:05;18.95;;;4.55;;
28166;SDS011;15455;53.376;-6.262;2022-12-18T01:39:52;16.80;;;4.13;;
28166;SDS011;15455;53.376;-6.262;2022-12-18T01:42:39;19.40;;;3.70;;
28166;SDS011;15455;53.376;-6.262;2022-12-18T01:45:26;15.02;;;4.30;;
28166;SDS011;15455;53.376;-6.262;2022-12-18T01:48:15;13.13;;;3.85;;
28166;SDS011;15455;53.376;-6.262;2022-12-18T01:51:00;9.00;;;3.72;;
28166;SDS011;15455;53.376;-6.262;2022-12-18T01:53:48;8.50;;;4.25;;
28166;SDS011;15455;53.376;-6.262;2022-12-18T01:56:34;15.82;;;5.22;;
28166;SDS011;15455;53.376;-6.262;2022-12-18T01:59:19;12.98;;;4.10;;
28166;SDS011;15455;53.376;-6.262;2022-12-18T02:02:05;9.48;;;3.53;;
28166;SDS011;15455;53.376;-6.262;2022-12-18T02:04:52;10.18;;;3.47;;
28166;SDS011;15455;53.376;-6.262;2022-12-18T02:16:54;8.95;;;3.00;;
28166;SDS011;15455;53.376;-6.262;2022-12-18T02:28:51;10.02;;;3.00;;
28166;SDS011;15455;53.376;-6.262;2022-12-18T02:31:45;5.50;;;2.67;;
28166;SDS011;15455;53.376;-6.262;2022-12-18T02:34:38;4.95;;;2.10;;
28166;SDS011;15455;53.376;-6.262;2022-12-18T02:37:30;10.98;;;1.70;;
28166;SDS011;15455;53.376;-6.262;2022-12-18T02:40:20;14.02;;;1.92;;
28166;SDS011;15455;53.376;-6.262;2022-12-18T02:43:10;8.80;;;1.83;;
28166;SDS011;15455;53.376;-6.262;2022-12-18T02:45:59;11.68;;;1.90;;
28166;SDS011;15455;53.376;-6.262;2022-12-18T02:52:20;10.98;;;1.90;;
28166;SDS011;15455;53.376;-6.262;2022-12-18T02:58:43;9.82;;;2.15;;
28166;SDS011;15455;53.376;-6.262;2022-12-18T03:08:14;6.47;;;1.98;;
28166;SDS011;15455;53.376;-6.262;2022-12-18T03:11:10;8.75;;;1.65;;
28166;SDS011;15455;53.376;-6.262;2022-12-18T03:13:57;11.10;;;2.43;;
28166;SDS011;15455;53.376;-6.262;2022-12-18T03:16:44;6.75;;;2.15;;
28166;SDS011;15455;53.376;-6.262;2022-12-18T03:19:32;9.85;;;2.83;;
28166;SDS011;15455;53.376;-6.262;2022-12-18T03:22:20;11.68;;;2.03;;
28166;SDS011;15455;53.376;-6.262;2022-12-18T03:25:10;10.55;;;2.30;;
28166;SDS011;15455;53.376;-6.262;2022-12-18T03:28:00;16.55;;;2.40;;
28166;SDS011;15455;53.376;-6.262;2022-12-18T03:30:49;7.53;;;2.75;;
28166;SDS011;15455;53.376;-6.262;2022-12-18T03:33:54;9.13;;;2.42;;
28166;SDS011;15455;53.376;-6.262;2022-12-18T03:36:51;10.20;;;2.80;;
28166;SDS011;15455;53.376;-6.262;2022-12-18T03:39:36;11.02;;;3.42;;
28166;SDS011;15455;53.376;-6.262;2022-12-18T03:42:28;14.55;;;2.80;;
28166;SDS011;15455;53.376;-6.262;2022-12-18T03:45:24;11.23;;;3.85;;
28166;SDS011;15455;53.376;-6.262;2022-12-18T03:51:45;9.52;;;3.53;;
28166;SDS011;15455;53.376;-6.262;2022-12-18T03:54:37;13.57;;;4.53;;
28166;SDS011;15455;53.376;-6.262;2022-12-18T03:57:31;8.80;;;3.92;;
28166;SDS011;15455;53.376;-6.262;2022-12-18T04:00:18;10.60;;;4.45;;
28166;SDS011;15455;53.376;-6.262;2022-12-18T04:03:16;12.85;;;4.32;;
28166;SDS011;15455;53.376;-6.262;2022-12-18T04:06:10;12.70;;;4.75;;
28166;SDS011;15455;53.376;-6.262;2022-12-18T04:08:58;21.45;;;4.75;;
28166;SDS011;15455;53.376;-6.262;2022-12-18T04:11:45;14.23;;;5.38;;
28166;SDS011;15455;53.376;-6.262;2022-12-18T04:14:33;23.77;;;6.47;;
28166;SDS011;15455;53.376;-6.262;2022-12-18T04:17:24;15.23;;;5.80;;
28166;SDS011;15455;53.376;-6.262;2022-12-18T04:20:10;21.40;;;7.20;;
28166;SDS011;15455;53.376;-6.262;2022-12-18T04:22:59;19.92;;;6.25;;
28166;SDS011;15455;53.376;-6.262;2022-12-18T04:25:46;15.45;;;7.68;;
28166;SDS011;15455;53.376;-6.262;2022-12-18T04:28:39;21.10;;;7.53;;
28166;SDS011;15455;53.376;-6.262;2022-12-18T04:31:27;20.48;;;7.00;;
28166;SDS011;15455;53.376;-6.262;2022-12-18T04:34:13;21.98;;;6.00;;
28166;SDS011;15455;53.376;-6.262;2022-12-18T04:37:05;29.65;;;7.05;;
28166;SDS011;15455;53.376;-6.262;2022-12-18T04:39:51;17.20;;;6.10;;
28166;SDS011;15455;53.376;-6.262;2022-12-18T04:42:46;22.30;;;6.70;;
28166;SDS011;15455;53.376;-6.262;2022-12-18T04:45:32;21.45;;;7.38;;
28166;SDS011;15455;53.376;-6.262;2022-12-18T04:48:18;22.67;;;5.75;;
28166;SDS011;15455;53.376;-6.262;2022-12-18T04:51:05;14.52;;;5.93;;
28166;SDS011;15455;53.376;-6.262;2022-12-18T04:53:51;18.63;;;6.68;;
28166;SDS011;15455;53.376;-6.262;2022-12-18T04:56:37;26.40;;;6.47;;
28166;SDS011;15455;53.376;-6.262;2022-12-18T04:59:23;15.43;;;5.55;;
28166;SDS011;15455;53.376;-6.262;2022-12-18T05:02:08;17.63;;;6.15;;
28166;SDS011;15455;53.376;-6.262;2022-12-18T05:04:54;15.60;;;5.05;;
28166;SDS011;15455;53.376;-6.262;2022-12-18T05:07:40;14.10;;;5.43;;
28166;SDS011;15455;53.376;-6.262;2022-12-18T05:10:26;25.70;;;7.28;;
28166;SDS011;15455;53.376;-6.262;2022-12-18T05:13:12;20.88;;;6.18;;
28166;SDS011;15455;53.376;-6.262;2022-12-18T05:15:58;23.00;;;5.72;;
28166;SDS011;15455;53.376;-6.262;2022-12-18T05:18:44;21.45;;;5.55;;
28166;SDS011;15455;53.376;-6.262;2022-12-18T05:21:29;18.70;;;5.47;;
28166;SDS011;15455;53.376;-6.262;2022-12-18T05:24:14;16.85;;;5.03;;
28166;SDS011;15455;53.376;-6.262;2022-12-18T05:27:00;21.92;;;5.05;;
28166;SDS011;15455;53.376;-6.262;2022-12-18T05:29:46;24.85;;;6.40;;
28166;SDS011;15455;53.376;-6.262;2022-12-18T05:32:31;20.83;;;4.90;;
28166;SDS011;15455;53.376;-6.262;2022-12-18T05:35:16;16.52;;;5.07;;
28166;SDS011;15455;53.376;-6.262;2022-12-18T05:38:02;15.23;;;5.65;;
28166;SDS011;15455;53.376;-6.262;2022-12-18T05:40:48;16.48;;;4.43;;
28166;SDS011;15455;53.376;-6.262;2022-12-18T05:43:35;21.83;;;5.90;;
28166;SDS011;15455;53.376;-6.262;2022-12-18T05:46:23;17.52;;;4.75;;
28166;SDS011;15455;53.376;-6.262;2022-12-18T05:49:09;20.05;;;5.35;;
28166;SDS011;15455;53.376;-6.262;2022-12-18T05:51:55;21.48;;;4.40;;
28166;SDS011;15455;53.376;-6.262;2022-12-18T05:54:40;17.90;;;4.20;;
28166;SDS011;15455;53.376;-6.262;2022-12-18T05:57:26;11.55;;;4.00;;
28166;SDS011;15455;53.376;-6.262;2022-12-18T06:00:11;19.02;;;5.18;;
28166;SDS011;15455;53.376;-6.262;2022-12-18T06:02:58;6.70;;;3.90;;
28166;SDS011;15455;53.376;-6.262;2022-12-18T06:05:44;10.68;;;4.53;;
28166;SDS011;15455;53.376;-6.262;2022-12-18T06:08:30;14.05;;;4.13;;
28166;SDS011;15455;53.376;-6.262;2022-12-18T06:11:16;13.85;;;4.32;;
28166;SDS011;15455;53.376;-6.262;2022-12-18T06:14:04;14.10;;;4.57;;
28166;SDS011;15455;53.376;-6.262;2022-12-18T06:16:51;14.05;;;5.18;;
28166;SDS011;15455;53.376;-6.262;2022-12-18T06:19:37;20.85;;;5.22;;
28166;SDS011;15455;53.376;-6.262;2022-12-18T06:22:23;16.10;;;5.05;;
28166;SDS011;15455;53.376;-6.262;2022-12-18T06:25:08;14.50;;;4.68;;
28166;SDS011;15455;53.376;-6.262;2022-12-18T06:27:54;23.05;;;5.88;;
28166;SDS011;15455;53.376;-6.262;2022-12-18T06:30:39;13.57;;;4.97;;
28166;SDS011;15455;53.376;-6.262;2022-12-18T06:33:26;12.18;;;4.65;;
28166;SDS011;15455;53.376;-6.262;2022-12-18T06:36:13;15.35;;;4.95;;
28166;SDS011;15455;53.376;-6.262;2022-12-18T06:38:59;19.83;;;5.20;;
28166;SDS011;15455;53.376;-6.262;2022-12-18T06:41:44;14.32;;;4.03;;
28166;SDS011;15455;53.376;-6.262;2022-12-18T06:44:30;9.13;;;3.97;;
28166;SDS011;15455;53.376;-6.262;2022-12-18T06:47:15;14.60;;;4.18;;
28166;SDS011;15455;53.376;-6.262;2022-12-18T06:50:01;14.38;;;3.55;;
28166;SDS011;15455;53.376;-6.262;2022-12-18T06:52:47;13.85;;;3.15;;
28166;SDS011;15455;53.376;-6.262;2022-12-18T06:55:32;9.32;;;3.05;;
28166;SDS011;15455;53.376;-6.262;2022-12-18T06:58:18;11.13;;;3.08;;
28166;SDS011;15455;53.376;-6.262;2022-12-18T07:01:04;7.25;;;3.13;;
28166;SDS011;15455;53.376;-6.262;2022-12-18T07:03:53;10.63;;;2.90;;
28166;SDS011;15455;53.376;-6.262;2022-12-18T07:06:40;14.40;;;2.95;;
28166;SDS011;15455;53.376;-6.262;2022-12-18T07:09:25;14.35;;;3.05;;
28166;SDS011;15455;53.376;-6.262;2022-12-18T07:12:13;11.65;;;2.50;;
28166;SDS011;15455;53.376;-6.262;2022-12-18T07:14:59;9.40;;;2.30;;
28166;SDS011;15455;53.376;-6.262;2022-12-18T07:17:44;12.05;;;2.95;;
28166;SDS011;15455;53.376;-6.262;2022-12-18T07:20:30;12.88;;;3.42;;
28166;SDS011;15455;53.376;-6.262;2022-12-18T07:23:15;8.40;;;2.70;;
28166;SDS011;15455;53.376;-6.262;2022-12-18T07:26:01;12.45;;;2.15;;
28166;SDS011;15455;53.376;-6.262;2022-12-18T07:28:49;10.02;;;2.83;;
28166;SDS011;15455;53.376;-6.262;2022-12-18T07:31:35;7.95;;;2.50;;
28166;SDS011;15455;53.376;-6.262;2022-12-18T07:34:21;4.68;;;2.25;;
28166;SDS011;15455;53.376;-6.262;2022-12-18T07:37:07;8.65;;;3.53;;
28166;SDS011;15455;53.376;-6.262;2022-12-18T07:39:52;10.30;;;2.92;;
28166;SDS011;15455;53.376;-6.262;2022-12-18T07:42:37;13.55;;;4.63;;
28166;SDS011;15455;53.376;-6.262;2022-12-18T07:45:23;13.10;;;3.67;;
28166;SDS011;15455;53.376;-6.262;2022-12-18T07:48:08;14.82;;;3.85;;
28166;SDS011;15455;53.376;-6.262;2022-12-18T07:50:57;10.07;;;3.90;;
28166;SDS011;15455;53.376;-6.262;2022-12-18T07:53:47;12.63;;;4.35;;
28166;SDS011;15455;53.376;-6.262;2022-12-18T07:56:36;12.10;;;3.85;;
28166;SDS011;15455;53.376;-6.262;2022-12-18T07:59:21;10.20;;;4.13;;
28166;SDS011;15455;53.376;-6.262;2022-12-18T08:02:06;10.35;;;3.65;;
28166;SDS011;15455;53.376;-6.262;2022-12-18T08:04:52;13.55;;;4.53;;
28166;SDS011;15455;53.376;-6.262;2022-12-18T08:07:39;19.55;;;4.18;;
28166;SDS011;15455;53.376;-6.262;2022-12-18T08:10:25;9.57;;;4.28;;
28166;SDS011;15455;53.376;-6.262;2022-12-18T08:13:10;13.60;;;4.63;;
28166;SDS011;15455;53.376;-6.262;2022-12-18T08:15:56;15.57;;;5.30;;
28166;SDS011;15455;53.376;-6.262;2022-12-18T08:18:45;13.70;;;3.72;;
28166;SDS011;15455;53.376;-6.262;2022-12-18T08:21:32;19.35;;;5.22;;
28166;SDS011;15455;53.376;-6.262;2022-12-18T08:24:17;18.10;;;5.88;;
28166;SDS011;15455;53.376;-6.262;2022-12-18T08:27:02;20.15;;;4.60;;
28166;SDS011;15455;53.376;-6.262;2022-12-18T08:30:08;14.93;;;4.45;;
28166;SDS011;15455;53.376;-6.262;2022-12-18T08:32:54;16.30;;;4.93;;
28166;SDS011;15455;53.376;-6.262;2022-12-18T08:35:39;21.63;;;5.68;;
28166;SDS011;15455;53.376;-6.262;2022-12-18T08:38:31;18.08;;;4.95;;
28166;SDS011;15455;53.376;-6.262;2022-12-18T08:41:17;17.63;;;5.05;;
28166;SDS011;15455;53.376;-6.262;2022-12-18T08:44:03;16.55;;;4.43;;
28166;SDS011;15455;53.376;-6.262;2022-12-18T08:47:07;14.73;;;5.30;;
28166;SDS011;15455;53.376;-6.262;2022-12-18T08:49:53;17.52;;;5.63;;
28166;SDS011;15455;53.376;-6.262;2022-12-18T08:52:39;26.60;;;5.53;;
28166;SDS011;15455;53.376;-6.262;2022-12-18T08:55:24;18.90;;;5.50;;
28166;SDS011;15455;53.376;-6.262;2022-12-18T08:58:10;10.50;;;4.95;;
28166;SDS011;15455;53.376;-6.262;2022-12-18T09:01:05;21.90;;;4.95;;
28166;SDS011;15455;53.376;-6.262;2022-12-18T09:03:52;16.63;;;6.55;;
28166;SDS011;15455;53.376;-6.262;2022-12-18T09:06:37;17.90;;;5.85;;
28166;SDS011;15455;53.376;-6.262;2022-12-18T09:09:23;17.88;;;6.65;;
28166;SDS011;15455;53.376;-6.262;2022-12-18T09:12:09;17.25;;;5.68;;
28166;SDS011;15455;53.376;-6.262;2022-12-18T09:14:54;14.35;;;5.18;;
28166;SDS011;15455;53.376;-6.262;2022-12-18T09:17:41;17.25;;;4.88;;
28166;SDS011;15455;53.376;-6.262;2022-12-18T09:20:26;23.23;;;5.47;;
28166;SDS011;15455;53.376;-6.262;2022-12-18T09:23:13;22.35;;;5.95;;
28166;SDS011;15455;53.376;-6.262;2022-12-18T09:25:59;12.80;;;4.57;;
28166;SDS011;15455;53.376;-6.262;2022-12-18T09:28:45;18.70;;;5.00;;
28166;SDS011;15455;53.376;-6.262;2022-12-18T09:31:31;18.63;;;5.22;;
28166;SDS011;15455;53.376;-6.262;2022-12-18T09:34:16;25.00;;;4.88;;
28166;SDS011;15455;53.376;-6.262;2022-12-18T09:37:02;14.35;;;3.72;;
28166;SDS011;15455;53.376;-6.262;2022-12-18T09:39:47;16.75;;;5.40;;
28166;SDS011;15455;53.376;-6.262;2022-12-18T09:42:33;14.05;;;4.63;;
28166;SDS011;15455;53.376;-6.262;2022-12-18T09:45:19;9.80;;;4.25;;
28166;SDS011;15455;53.376;-6.262;2022-12-18T09:48:05;16.63;;;5.00;;
28166;SDS011;15455;53.376;-6.262;2022-12-18T09:50:57;17.63;;;4.30;;
28166;SDS011;15455;53.376;-6.262;2022-12-18T09:56:40;12.57;;;4.28;;
28166;SDS011;15455;53.376;-6.262;2022-12-18T09:59:30;15.02;;;4.32;;
28166;SDS011;15455;53.376;-6.262;2022-12-18T10:02:21;12.93;;;3.90;;
28166;SDS011;15455;53.376;-6.262;2022-12-18T10:05:16;15.32;;;5.25;;
28166;SDS011;15455;53.376;-6.262;2022-12-18T10:11:03;11.82;;;4.03;;
28166;SDS011;15455;53.376;-6.262;2022-12-18T10:17:26;12.07;;;3.88;;
28166;SDS011;15455;53.376;-6.262;2022-12-18T10:27:08;10.68;;;4.20;;
28166;SDS011;15455;53.376;-6.262;2022-12-18T10:30:00;14.85;;;4.60;;
28166;SDS011;15455;53.376;-6.262;2022-12-18T10:33:00;9.43;;;3.47;;
28166;SDS011;15455;53.376;-6.262;2022-12-18T10:35:47;17.50;;;4.20;;
28166;SDS011;15455;53.376;-6.262;2022-12-18T10:38:37;12.40;;;3.67;;
28166;SDS011;15455;53.376;-6.262;2022-12-18T10:41:24;12.38;;;4.05;;
28166;SDS011;15455;53.376;-6.262;2022-12-18T10:47:04;12.88;;;4.43;;
28166;SDS011;15455;53.376;-6.262;2022-12-18T10:49:55;12.82;;;4.75;;
28166;SDS011;15455;53.376;-6.262;2022-12-18T10:52:42;9.13;;;4.50;;
28166;SDS011;15455;53.376;-6.262;2022-12-18T10:58:29;10.25;;;4.80;;
28166;SDS011;15455;53.376;-6.262;2022-12-18T11:01:17;16.73;;;5.20;;
28166;SDS011;15455;53.376;-6.262;2022-12-18T11:04:08;20.40;;;5.53;;
28166;SDS011;15455;53.376;-6.262;2022-12-18T11:07:01;16.83;;;5.13;;
28166;SDS011;15455;53.376;-6.262;2022-12-18T11:09:59;19.65;;;4.80;;
28166;SDS011;15455;53.376;-6.262;2022-12-18T11:12:46;11.98;;;4.38;;
28166;SDS011;15455;53.376;-6.262;2022-12-18T11:15:32;14.70;;;4.15;;
28166;SDS011;15455;53.376;-6.262;2022-12-18T11:18:29;12.35;;;4.18;;
28166;SDS011;15455;53.376;-6.262;2022-12-18T11:21:17;15.50;;;4.43;;
28166;SDS011;15455;53.376;-6.262;2022-12-18T11:24:02;17.10;;;5.05;;
28166;SDS011;15455;53.376;-6.262;2022-12-18T11:26:48;11.75;;;4.20;;
28166;SDS011;15455;53.376;-6.262;2022-12-18T11:29:41;16.52;;;5.32;;
28166;SDS011;15455;53.376;-6.262;2022-12-18T11:32:35;16.15;;;4.80;;
28166;SDS011;15455;53.376;-6.262;2022-12-18T11:41:21;16.40;;;3.55;;
28166;SDS011;15455;53.376;-6.262;2022-12-18T11:47:50;20.50;;;4.43;;
28166;SDS011;15455;53.376;-6.262;2022-12-18T11:50:49;11.15;;;3.42;;
28166;SDS011;15455;53.376;-6.262;2022-12-18T11:53:37;18.58;;;4.15;;
28166;SDS011;15455;53.376;-6.262;2022-12-18T11:56:32;14.48;;;3.85;;
28166;SDS011;15455;53.376;-6.262;2022-12-18T12:05:16;20.13;;;4.07;;
28166;SDS011;15455;53.376;-6.262;2022-12-18T12:08:11;13.52;;;3.50;;
28166;SDS011;15455;53.376;-6.262;2022-12-18T12:23:22;10.90;;;2.70;;
28166;SDS011;15455;53.376;-6.262;2022-12-18T12:26:23;9.13;;;1.98;;
28166;SDS011;15455;53.376;-6.262;2022-12-18T12:32:11;9.32;;;2.08;;
28166;SDS011;15455;53.376;-6.262;2022-12-18T12:38:24;7.97;;;2.75;;
28166;SDS011;15455;53.376;-6.262;2022-12-18T12:41:17;14.35;;;4.03;;
28166;SDS011;15455;53.376;-6.262;2022-12-18T12:44:26;6.32;;;3.15;;
28166;SDS011;15455;53.376;-6.262;2022-12-18T12:47:18;13.68;;;2.88;;
28166;SDS011;15455;53.376;-6.262;2022-12-18T12:50:12;11.15;;;3.03;;
28166;SDS011;15455;53.376;-6.262;2022-12-18T12:53:01;10.85;;;3.40;;
28166;SDS011;15455;53.376;-6.262;2022-12-18T12:55:55;11.52;;;2.95;;
28166;SDS011;15455;53.376;-6.262;2022-12-18T13:05:05;4.15;;;1.75;;
28166;SDS011;15455;53.376;-6.262;2022-12-18T13:08:03;6.38;;;2.03;;
28166;SDS011;15455;53.376;-6.262;2022-12-18T13:10:52;15.68;;;2.65;;
28166;SDS011;15455;53.376;-6.262;2022-12-18T13:14:20;12.82;;;2.97;;
28166;SDS011;15455;53.376;-6.262;2022-12-18T13:20:10;6.75;;;2.08;;
28166;SDS011;15455;53.376;-6.262;2022-12-18T13:23:01;6.53;;;2.30;;
28166;SDS011;15455;53.376;-6.262;2022-12-18T13:28:52;2.03;;;1.63;;
28166;SDS011;15455;53.376;-6.262;2022-12-18T13:34:27;9.00;;;2.50;;
28166;SDS011;15455;53.376;-6.262;2022-12-18T13:43:42;3.25;;;1.50;;
28166;SDS011;15455;53.376;-6.262;2022-12-18T13:46:46;3.53;;;1.35;;
28166;SDS011;15455;53.376;-6.262;2022-12-18T13:49:40;6.57;;;1.48;;
28166;SDS011;15455;53.376;-6.262;2022-12-18T13:52:28;3.28;;;1.38;;
28166;SDS011;15455;53.376;-6.262;2022-12-18T13:55:21;7.72;;;1.58;;
28166;SDS011;15455;53.376;-6.262;2022-12-18T13:58:11;5.07;;;1.58;;
28166;SDS011;15455;53.376;-6.262;2022-12-18T14:00:57;5.13;;;1.42;;
28166;SDS011;15455;53.376;-6.262;2022-12-18T14:03:44;4.13;;;1.60;;
28166;SDS011;15455;53.376;-6.262;2022-12-18T14:06:31;3.13;;;1.65;;
28166;SDS011;15455;53.376;-6.262;2022-12-18T14:09:20;2.83;;;1.42;;
28166;SDS011;15455;53.376;-6.262;2022-12-18T14:15:39;10.30;;;4.80;;
28166;SDS011;15455;53.376;-6.262;2022-12-18T14:18:37;17.60;;;7.60;;
28166;SDS011;15455;53.376;-6.262;2022-12-18T14:21:51;6.18;;;2.10;;
28166;SDS011;15455;53.376;-6.262;2022-12-18T14:24:36;7.40;;;3.83;;
28166;SDS011;15455;53.376;-6.262;2022-12-18T14:27:25;4.93;;;1.90;;
28166;SDS011;15455;53.376;-6.262;2022-12-18T14:33:19;24.77;;;7.07;;
28166;SDS011;15455;53.376;-6.262;2022-12-18T14:36:13;7.03;;;2.50;;
28166;SDS011;15455;53.376;-6.262;2022-12-18T14:39:02;8.98;;;4.25;;
28166;SDS011;15455;53.376;-6.262;2022-12-18T14:41:50;10.77;;;2.90;;
28166;SDS011;15455;53.376;-6.262;2022-12-18T14:44:37;10.85;;;2.65;;
28166;SDS011;15455;53.376;-6.262;2022-12-18T14:47:43;9.38;;;2.97;;
28166;SDS011;15455;53.376;-6.262;2022-12-18T14:50:29;9.07;;;4.68;;
28166;SDS011;15455;53.376;-6.262;2022-12-18T14:53:23;12.00;;;3.67;;
28166;SDS011;15455;53.376;-6.262;2022-12-18T14:56:24;12.70;;;3.72;;
28166;SDS011;15455;53.376;-6.262;2022-12-18T14:59:16;15.27;;;5.68;;
28166;SDS011;15455;53.376;-6.262;2022-12-18T15:05:27;13.65;;;3.45;;
28166;SDS011;15455;53.376;-6.262;2022-12-18T15:08:28;30.58;;;10.80;;
28166;SDS011;15455;53.376;-6.262;2022-12-18T15:11:25;15.57;;;6.32;;
28166;SDS011;15455;53.376;-6.262;2022-12-18T15:14:22;24.73;;;6.18;;
28166;SDS011;15455;53.376;-6.262;2022-12-18T15:17:20;12.25;;;4.60;;
28166;SDS011;15455;53.376;-6.262;2022-12-18T15:20:10;20.95;;;3.70;;
28166;SDS011;15455;53.376;-6.262;2022-12-18T15:22:56;17.55;;;4.38;;
28166;SDS011;15455;53.376;-6.262;2022-12-18T15:25:41;15.98;;;4.07;;
28166;SDS011;15455;53.376;-6.262;2022-12-18T15:28:31;11.45;;;3.67;;
28166;SDS011;15455;53.376;-6.262;2022-12-18T15:34:19;18.23;;;5.00;;
28166;SDS011;15455;53.376;-6.262;2022-12-18T15:37:07;16.02;;;3.20;;
28166;SDS011;15455;53.376;-6.262;2022-12-18T15:39:53;9.10;;;3.00;;
28166;SDS011;15455;53.376;-6.262;2022-12-18T15:42:38;10.07;;;3.22;;
28166;SDS011;15455;53.376;-6.262;2022-12-18T15:45:42;21.27;;;4.55;;
28166;SDS011;15455;53.376;-6.262;2022-12-18T15:48:28;14.18;;;4.30;;
28166;SDS011;15455;53.376;-6.262;2022-12-18T15:54:09;14.68;;;4.10;;
28166;SDS011;15455;53.376;-6.262;2022-12-18T15:56:58;18.40;;;3.88;;
28166;SDS011;15455;53.376;-6.262;2022-12-18T16:00:02;16.20;;;3.50;;
28166;SDS011;15455;53.376;-6.262;2022-12-18T16:02:48;17.23;;;4.47;;
28166;SDS011;15455;53.376;-6.262;2022-12-18T16:05:34;17.90;;;3.95;;
28166;SDS011;15455;53.376;-6.262;2022-12-18T16:08:20;14.93;;;4.03;;
28166;SDS011;15455;53.376;-6.262;2022-12-18T16:11:05;13.65;;;3.47;;
28166;SDS011;15455;53.376;-6.262;2022-12-18T16:14:12;26.27;;;4.85;;
28166;SDS011;15455;53.376;-6.262;2022-12-18T16:17:03;16.08;;;5.43;;
28166;SDS011;15455;53.376;-6.262;2022-12-18T16:19:54;20.33;;;6.15;;
28166;SDS011;15455;53.376;-6.262;2022-12-18T16:22:39;21.95;;;7.60;;
28166;SDS011;15455;53.376;-6.262;2022-12-18T16:25:26;21.75;;;8.10;;
28166;SDS011;15455;53.376;-6.262;2022-12-18T16:28:12;20.02;;;8.50;;
28166;SDS011;15455;53.376;-6.262;2022-12-18T16:30:58;17.38;;;5.82;;
28166;SDS011;15455;53.376;-6.262;2022-12-18T16:33:44;18.50;;;5.45;;
28166;SDS011;15455;53.376;-6.262;2022-12-18T16:36:29;15.82;;;5.90;;
28166;SDS011;15455;53.376;-6.262;2022-12-18T16:39:15;22.60;;;6.25;;
28166;SDS011;15455;53.376;-6.262;2022-12-18T16:42:04;19.60;;;6.63;;
28166;SDS011;15455;53.376;-6.262;2022-12-18T16:45:02;28.63;;;10.80;;
28166;SDS011;15455;53.376;-6.262;2022-12-18T16:47:48;35.72;;;13.50;;
28166;SDS011;15455;53.376;-6.262;2022-12-18T16:50:34;31.40;;;10.48;;
28166;SDS011;15455;53.376;-6.262;2022-12-18T16:53:19;47.90;;;14.13;;
28166;SDS011;15455;53.376;-6.262;2022-12-18T16:56:05;42.83;;;14.00;;
28166;SDS011;15455;53.376;-6.262;2022-12-18T16:58:52;36.03;;;14.63;;
28166;SDS011;15455;53.376;-6.262;2022-12-18T17:01:39;30.63;;;11.65;;
28166;SDS011;15455;53.376;-6.262;2022-12-18T17:04:26;26.55;;;10.95;;
28166;SDS011;15455;53.376;-6.262;2022-12-18T17:07:12;35.05;;;9.70;;
28166;SDS011;15455;53.376;-6.262;2022-12-18T17:09:58;24.77;;;9.13;;
28166;SDS011;15455;53.376;-6.262;2022-12-18T17:12:43;23.65;;;8.88;;
28166;SDS011;15455;53.376;-6.262;2022-12-18T17:15:28;16.05;;;6.63;;
28166;SDS011;15455;53.376;-6.262;2022-12-18T17:18:13;28.48;;;10.23;;
28166;SDS011;15455;53.376;-6.262;2022-12-18T17:20:59;35.03;;;13.43;;
28166;SDS011;15455;53.376;-6.262;2022-12-18T17:23:46;28.30;;;10.68;;
28166;SDS011;15455;53.376;-6.262;2022-12-18T17:26:31;28.10;;;10.25;;
28166;SDS011;15455;53.376;-6.262;2022-12-18T17:29:18;16.15;;;7.60;;
28166;SDS011;15455;53.376;-6.262;2022-12-18T17:32:08;9.02;;;5.60;;
28166;SDS011;15455;53.376;-6.262;2022-12-18T17:34:53;6.68;;;4.53;;
28166;SDS011;15455;53.376;-6.262;2022-12-18T17:37:39;12.95;;;4.97;;
28166;SDS011;15455;53.376;-6.262;2022-12-18T17:40:24;11.23;;;5.78;;
28166;SDS011;15455;53.376;-6.262;2022-12-18T17:43:10;15.52;;;6.70;;
28166;SDS011;15455;53.376;-6.262;2022-12-18T17:46:00;14.10;;;8.20;;
28166;SDS011;15455;53.376;-6.262;2022-12-18T17:48:48;9.98;;;5.88;;
28166;SDS011;15455;53.376;-6.262;2022-12-18T17:51:33;9.82;;;5.30;;
28166;SDS011;15455;53.376;-6.262;2022-12-18T17:54:19;12.68;;;6.68;;
28166;SDS011;15455;53.376;-6.262;2022-12-18T17:57:05;9.32;;;5.80;;
28166;SDS011;15455;53.376;-6.262;2022-12-18T17:59:50;6.80;;;4.60;;
28166;SDS011;15455;53.376;-6.262;2022-12-18T18:02:36;19.05;;;8.35;;
28166;SDS011;15455;53.376;-6.262;2022-12-18T18:05:23;12.70;;;6.07;;
28166;SDS011;15455;53.376;-6.262;2022-12-18T18:08:08;14.70;;;5.35;;
28166;SDS011;15455;53.376;-6.262;2022-12-18T18:10:54;9.25;;;5.40;;
28166;SDS011;15455;53.376;-6.262;2022-12-18T18:14:00;12.13;;;7.03;;
28166;SDS011;15455;53.376;-6.262;2022-12-18T18:16:48;16.55;;;8.63;;
28166;SDS011;15455;53.376;-6.262;2022-12-18T18:19:36;17.45;;;8.23;;
28166;SDS011;15455;53.376;-6.262;2022-12-18T18:22:23;20.75;;;8.27;;
28166;SDS011;15455;53.376;-6.262;2022-12-18T18:25:09;17.85;;;9.48;;
28166;SDS011;15455;53.376;-6.262;2022-12-18T18:27:55;29.10;;;12.55;;
28166;SDS011;15455;53.376;-6.262;2022-12-18T18:30:41;17.42;;;9.45;;
28166;SDS011;15455;53.376;-6.262;2022-12-18T18:33:26;14.68;;;9.32;;
28166;SDS011;15455;53.376;-6.262;2022-12-18T18:36:12;20.40;;;10.63;;
28166;SDS011;15455;53.376;-6.262;2022-12-18T18:38:58;31.25;;;14.38;;